createdAt,value
2023-04-14T00:01:26.074Z,51.70
2023-04-14T00:03:27.888Z,50.96
2023-04-14T00:05:29.850Z,51.15
2023-04-14T00:07:31.312Z,51.36
2023-04-14T00:09:32.619Z,51.64
2023-04-14T00:11:33.948Z,51.56
2023-04-14T00:13:35.306Z,51.74
2023-04-14T00:15:36.651Z,51.79
2023-04-14T00:17:38.040Z,52.38
2023-04-14T00:19:39.468Z,52.40
2023-04-14T00:21:41.300Z,52.81
2023-04-14T00:23:42.597Z,52.59
2023-04-14T00:25:43.899Z,52.59
2023-04-14T00:27:45.265Z,53.08
2023-04-14T00:29:46.648Z,53.33
2023-04-14T00:31:48.243Z,53.23
2023-04-14T00:33:49.554Z,53.61
2023-04-14T00:35:50.937Z,53.40
2023-04-14T00:37:52.241Z,53.64
2023-04-14T00:39:53.559Z,53.87
2023-04-14T00:41:54.859Z,53.77
2023-04-14T00:43:56.202Z,54.04
2023-04-14T00:45:57.518Z,54.08
2023-04-14T00:47:58.900Z,54.29
2023-04-14T00:50:00.241Z,54.00
2023-04-14T00:52:01.578Z,54.03
2023-04-14T00:54:02.909Z,53.39
2023-04-14T00:56:04.242Z,53.77
2023-04-14T00:58:05.534Z,53.62
2023-04-14T01:00:06.865Z,53.73
2023-04-14T01:02:08.269Z,53.78
2023-04-14T01:04:09.679Z,53.65
2023-04-14T01:06:11.070Z,53.90
2023-04-14T01:08:12.402Z,53.84
2023-04-14T01:10:13.732Z,54.15
2023-04-14T01:12:15.050Z,54.33
2023-04-14T01:14:16.339Z,54.45
2023-04-14T01:16:17.789Z,54.40
2023-04-14T01:18:19.785Z,54.24
2023-04-14T01:20:22.081Z,54.81
2023-04-14T01:22:23.390Z,54.76
2023-04-14T01:24:24.699Z,55.14
2023-04-14T01:26:26.002Z,54.58
2023-04-14T01:28:27.491Z,54.02
2023-04-14T01:30:28.817Z,54.15
2023-04-14T01:32:30.172Z,54.51
2023-04-14T01:34:31.520Z,54.49
2023-04-14T01:36:32.850Z,54.71
2023-04-14T01:38:34.526Z,54.79
2023-04-14T01:40:36.005Z,54.56
2023-04-14T01:42:37.337Z,55.03
2023-04-14T01:44:38.640Z,54.83
2023-04-14T01:46:39.980Z,54.74
2023-04-14T01:48:41.486Z,54.86
2023-04-14T01:50:42.780Z,54.02
2023-04-14T01:52:44.119Z,54.40
2023-04-14T01:54:45.490Z,54.14
2023-04-14T01:56:46.974Z,54.74
2023-04-14T01:58:48.369Z,54.25
2023-04-14T02:00:49.711Z,54.38
2023-04-14T02:02:52.364Z,54.45
2023-04-14T02:04:53.919Z,54.90
2023-04-14T02:06:55.370Z,54.96
2023-04-14T02:08:56.664Z,54.90
2023-04-14T02:10:58.016Z,55.30
2023-04-14T02:13:00.494Z,55.04
2023-04-14T02:15:01.864Z,55.13
2023-04-14T02:17:03.310Z,55.38
2023-04-14T02:19:04.644Z,55.40
2023-04-14T02:21:06.001Z,55.22
2023-04-14T02:23:07.321Z,55.53
2023-04-14T02:25:08.632Z,55.49
2023-04-14T02:27:10.015Z,56.03
2023-04-14T02:29:11.452Z,56.31
2023-04-14T02:31:12.865Z,56.41
2023-04-14T02:33:14.272Z,56.71
2023-04-14T02:35:17.058Z,56.94
2023-04-14T02:37:18.370Z,56.67
2023-04-14T02:39:20.959Z,56.42
2023-04-14T02:41:22.324Z,56.77
2023-04-14T02:43:23.662Z,56.83
2023-04-14T02:45:24.952Z,56.99
2023-04-14T02:47:26.341Z,57.30
2023-04-14T02:49:27.673Z,56.91
2023-04-14T02:51:28.979Z,57.35
2023-04-14T02:53:30.283Z,57.50
2023-04-14T02:55:31.624Z,57.54
2023-04-14T02:57:33.414Z,58.00
2023-04-14T02:59:34.777Z,57.24
2023-04-14T03:01:36.331Z,57.16
2023-04-14T03:03:37.924Z,56.70
2023-04-14T03:05:39.446Z,56.76
2023-04-14T03:07:40.805Z,57.16
2023-04-14T03:09:42.399Z,55.98
2023-04-14T03:11:43.698Z,56.45
2023-04-14T03:13:45.037Z,56.31
2023-04-14T03:15:46.577Z,55.85
2023-04-14T03:17:53.917Z,56.23
2023-04-14T03:19:56.107Z,56.07
2023-04-14T03:21:58.846Z,56.03
2023-04-14T03:24:00.255Z,56.76
2023-04-14T03:26:02.164Z,56.58
2023-04-14T03:28:03.490Z,56.69
2023-04-14T03:30:04.835Z,56.47
2023-04-14T03:32:06.989Z,56.70
2023-04-14T03:34:08.391Z,56.84
2023-04-14T03:36:09.708Z,56.84
2023-04-14T03:38:11.363Z,56.94
2023-04-14T03:40:12.827Z,57.36
2023-04-14T03:42:14.151Z,56.67
2023-04-14T03:44:16.423Z,57.17
2023-04-14T03:46:18.112Z,57.17
2023-04-14T03:48:19.994Z,57.17
2023-04-14T03:50:21.905Z,57.14
2023-04-14T03:52:23.212Z,57.41
2023-04-14T03:54:25.393Z,57.80
2023-04-14T03:56:26.720Z,57.57
2023-04-14T03:58:28.012Z,57.51
2023-04-14T04:00:29.308Z,57.33
2023-04-14T04:02:30.852Z,57.32
2023-04-14T04:04:32.618Z,57.49
2023-04-14T04:06:34.044Z,57.62
2023-04-14T04:08:35.497Z,58.21
2023-04-14T04:10:36.961Z,57.82
2023-04-14T04:12:38.287Z,57.86
2023-04-14T04:14:40.436Z,57.91
2023-04-14T04:16:41.807Z,57.31
2023-04-14T04:18:46.940Z,57.37
2023-04-14T04:20:48.314Z,57.33
2023-04-14T04:22:49.775Z,57.72
2023-04-14T04:24:51.193Z,56.81
2023-04-14T04:26:53.306Z,57.32
2023-04-14T04:28:54.714Z,57.07
2023-04-14T04:30:56.035Z,57.19
2023-04-14T04:32:57.422Z,57.00
2023-04-14T04:34:58.921Z,57.08
2023-04-14T04:37:00.793Z,57.01
2023-04-14T04:39:02.370Z,57.15
2023-04-14T04:41:03.877Z,56.31
2023-04-14T04:43:05.268Z,56.58
2023-04-14T04:45:06.637Z,56.50
2023-04-14T04:47:07.975Z,56.05
2023-04-14T04:49:09.320Z,56.00
2023-04-14T04:51:10.708Z,56.51
2023-04-14T04:53:12.388Z,56.24
2023-04-14T04:55:13.733Z,56.75
2023-04-14T04:57:15.077Z,56.37
2023-04-14T04:59:16.458Z,56.31
2023-04-14T05:01:19.316Z,56.33
2023-04-14T05:03:21.063Z,56.17
2023-04-14T05:05:22.567Z,56.43
2023-04-14T05:07:23.985Z,56.91
2023-04-14T05:09:25.488Z,56.64
2023-04-14T05:11:27.147Z,56.95
2023-04-14T05:13:28.466Z,56.90
2023-04-14T05:15:29.803Z,56.84
2023-04-14T05:17:31.244Z,57.11
2023-04-14T05:19:32.601Z,57.04
2023-04-14T05:21:34.113Z,57.16
2023-04-14T05:23:35.580Z,57.03
2023-04-14T05:25:36.893Z,56.97
2023-04-14T05:27:38.248Z,57.08
2023-04-14T05:29:39.593Z,57.00
2023-04-14T05:31:41.294Z,57.34
2023-04-14T05:33:42.707Z,57.35
2023-04-14T05:35:47.390Z,56.73
2023-04-14T05:37:48.692Z,57.17
2023-04-14T05:39:50.001Z,57.32
2023-04-14T05:41:51.442Z,57.10
2023-04-14T05:43:52.792Z,56.96
2023-04-14T05:45:54.180Z,57.10
2023-04-14T05:47:55.663Z,57.26
2023-04-14T05:49:58.378Z,57.49
2023-04-14T05:51:59.720Z,57.32
2023-04-14T05:54:01.346Z,57.63
2023-04-14T05:56:02.980Z,57.10
2023-04-14T05:58:04.647Z,57.36
2023-04-14T06:00:06.254Z,57.07
2023-04-14T06:02:07.732Z,57.07
2023-04-14T06:04:09.731Z,56.87
2023-04-14T06:06:11.332Z,56.60
2023-04-14T06:08:12.731Z,56.62
2023-04-14T06:10:14.246Z,56.41
2023-04-14T06:12:15.799Z,56.37
2023-04-14T06:14:17.179Z,57.01
2023-04-14T06:16:21.441Z,56.55
2023-04-14T06:18:25.815Z,56.60
2023-04-14T06:20:27.137Z,56.83
2023-04-14T06:22:32.569Z,56.69
2023-04-14T06:24:34.581Z,56.30
2023-04-14T06:26:37.050Z,56.68
2023-04-14T06:28:38.397Z,56.39
2023-04-14T06:30:39.691Z,56.62
2023-04-14T06:32:41.358Z,56.78
2023-04-14T06:34:42.696Z,56.46
2023-04-14T06:36:47.005Z,56.54
2023-04-14T06:38:48.351Z,57.20
2023-04-14T06:40:51.904Z,56.63
2023-04-14T06:42:54.495Z,57.12
2023-04-14T06:44:56.064Z,56.72
2023-04-14T06:46:57.396Z,56.30
2023-04-14T06:48:59.081Z,56.48
2023-04-14T06:51:00.766Z,56.61
2023-04-14T06:53:02.149Z,56.77
2023-04-14T06:55:03.528Z,56.72
2023-04-14T06:57:04.861Z,56.69
2023-04-14T06:59:06.192Z,56.35
2023-04-14T07:01:07.508Z,56.30
2023-04-14T07:03:09.321Z,56.63
2023-04-14T07:05:10.789Z,56.48
2023-04-14T07:07:14.366Z,56.36
2023-04-14T07:09:16.042Z,56.29
2023-04-14T07:11:17.409Z,56.06
2023-04-14T07:13:18.731Z,55.89
2023-04-14T07:15:20.129Z,55.39
2023-04-14T07:17:21.517Z,55.76
2023-04-14T07:19:22.851Z,55.20
2023-04-14T07:21:24.154Z,55.39
2023-04-14T07:23:25.740Z,55.15
2023-04-14T07:25:27.368Z,55.01
2023-04-14T07:27:28.889Z,55.00
2023-04-14T07:29:30.322Z,54.77
2023-04-14T07:31:34.155Z,54.73
2023-04-14T07:33:36.069Z,54.66
2023-04-14T07:35:40.251Z,54.23
2023-04-14T07:37:44.940Z,54.03
2023-04-14T07:39:46.296Z,53.60
2023-04-14T07:41:47.610Z,53.53
2023-04-14T07:43:48.995Z,53.56
2023-04-14T07:45:50.390Z,53.83
2023-04-14T07:47:52.240Z,53.25
2023-04-14T07:49:54.644Z,53.29
2023-04-14T07:51:56.954Z,53.34
2023-04-14T07:53:58.724Z,53.53
2023-04-14T07:56:00.226Z,53.41
2023-04-14T07:58:01.604Z,53.52
2023-04-14T08:00:03.974Z,53.42
2023-04-14T08:02:05.551Z,53.68
2023-04-14T08:04:07.061Z,53.56
2023-04-14T08:06:09.027Z,53.57
2023-04-14T08:08:10.382Z,53.53
2023-04-14T08:10:11.692Z,54.03
2023-04-14T08:12:13.071Z,53.61
2023-04-14T08:14:14.411Z,53.72
2023-04-14T08:16:15.785Z,54.25
2023-04-14T08:18:17.440Z,54.23
2023-04-14T08:20:18.738Z,54.09
2023-04-14T08:22:20.096Z,54.29
2023-04-14T08:24:21.487Z,54.33
2023-04-14T08:26:22.833Z,54.55
2023-04-14T08:28:24.660Z,54.37
2023-04-14T08:30:26.214Z,54.57
2023-04-14T08:32:28.486Z,54.72
2023-04-14T08:34:30.389Z,54.38
2023-04-14T08:36:31.751Z,54.59
2023-04-14T08:38:33.115Z,54.51
2023-04-14T08:40:34.437Z,54.48
2023-04-14T08:42:35.747Z,54.35
2023-04-14T08:44:37.398Z,54.35
2023-04-14T08:46:38.698Z,54.25
2023-04-14T08:48:40.035Z,54.25
2023-04-14T08:50:42.352Z,54.09
2023-04-14T08:52:43.649Z,53.96
2023-04-14T08:54:45.299Z,53.82
2023-04-14T08:56:46.623Z,53.55
2023-04-14T08:58:47.955Z,53.49
2023-04-14T09:00:49.258Z,53.68
2023-04-14T09:02:50.873Z,53.73
2023-04-14T09:04:52.613Z,53.48
2023-04-14T09:06:54.061Z,52.97
2023-04-14T09:08:55.470Z,53.21
2023-04-14T09:10:56.779Z,53.40
2023-04-14T09:12:58.200Z,53.17
2023-04-14T09:14:59.525Z,52.83
2023-04-14T09:17:00.899Z,52.81
2023-04-14T09:19:06.473Z,53.16
2023-04-14T09:21:30.445Z,52.72
2023-04-14T09:23:29.981Z,53.07
2023-04-14T09:25:31.744Z,52.78
2023-04-14T09:27:33.157Z,53.09
2023-04-14T09:29:34.538Z,53.16
2023-04-14T09:31:35.971Z,52.82
2023-04-14T09:33:37.419Z,52.79
2023-04-14T09:35:38.803Z,52.80
2023-04-14T09:37:40.107Z,53.17
2023-04-14T09:39:44.184Z,52.91
2023-04-14T09:41:45.546Z,53.38
2023-04-14T09:43:47.181Z,53.23
2023-04-14T09:45:48.575Z,53.07
2023-04-14T09:47:49.962Z,53.17
2023-04-14T09:49:51.739Z,53.07
2023-04-14T09:51:53.194Z,53.12
2023-04-14T09:53:54.667Z,53.20
2023-04-14T09:55:56.178Z,53.32
2023-04-14T09:57:57.963Z,53.25
2023-04-14T09:59:59.269Z,53.11
2023-04-14T10:02:03.585Z,53.30
2023-04-14T10:04:05.012Z,53.07
2023-04-14T10:06:06.324Z,53.14
2023-04-14T10:08:07.644Z,53.17
2023-04-14T10:10:08.962Z,53.36
2023-04-14T10:12:10.523Z,53.68
2023-04-14T10:14:11.957Z,53.48
2023-04-14T10:16:13.541Z,53.34
2023-04-14T10:18:14.950Z,53.66
2023-04-14T10:20:16.495Z,53.38
2023-04-14T10:22:17.826Z,53.50
2023-04-14T10:24:19.119Z,53.38
2023-04-14T10:26:20.757Z,53.09
2023-04-14T10:28:22.399Z,53.46
2023-04-14T10:30:23.700Z,53.07
2023-04-14T10:32:28.116Z,53.16
2023-04-14T10:34:29.453Z,53.08
2023-04-14T10:36:31.951Z,53.38
2023-04-14T10:38:33.594Z,53.32
2023-04-14T10:40:34.915Z,53.42
2023-04-14T10:42:37.341Z,53.15
2023-04-14T10:44:39.330Z,53.20
2023-04-14T10:46:40.674Z,52.85
2023-04-14T10:48:42.608Z,52.87
2023-04-14T10:50:43.904Z,53.05
2023-04-14T10:52:45.729Z,52.77
2023-04-14T10:54:53.527Z,52.86
2023-04-14T10:56:55.046Z,53.02
2023-04-14T10:58:56.457Z,52.85
2023-04-14T11:00:57.801Z,52.86
2023-04-14T11:02:59.328Z,52.84
2023-04-14T11:05:02.337Z,52.72
2023-04-14T11:07:03.714Z,52.84
2023-04-14T11:09:05.029Z,52.34
2023-04-14T11:11:06.431Z,52.31
2023-04-14T11:13:08.471Z,52.42
2023-04-14T11:15:09.780Z,52.53
2023-04-14T11:17:11.611Z,52.75
2023-04-14T11:19:13.267Z,52.68
2023-04-14T11:21:15.082Z,52.45
2023-04-14T11:23:16.639Z,52.64
2023-04-14T11:25:18.646Z,52.74
2023-04-14T11:27:20.671Z,52.43
2023-04-14T11:29:22.007Z,52.76
2023-04-14T11:31:23.443Z,52.65
2023-04-14T11:33:25.224Z,52.66
2023-04-14T11:35:29.392Z,52.68
2023-04-14T11:37:30.754Z,52.53
2023-04-14T11:39:32.304Z,52.47
2023-04-14T11:41:33.828Z,52.48
2023-04-14T11:43:35.689Z,52.61
2023-04-14T11:45:37.557Z,52.41
2023-04-14T11:47:39.032Z,52.47
2023-04-14T11:49:40.670Z,52.41
2023-04-14T11:51:42.069Z,52.76
2023-04-14T11:53:43.426Z,52.98
2023-04-14T11:55:45.064Z,52.98
2023-04-14T11:57:47.215Z,53.25
2023-04-14T11:59:48.599Z,52.91
2023-04-14T12:01:54.380Z,53.47
2023-04-14T12:03:56.169Z,53.27
2023-04-14T12:05:57.566Z,53.27
2023-04-14T12:07:58.885Z,53.21
2023-04-14T12:10:00.898Z,52.98
2023-04-14T12:12:02.747Z,53.23
2023-04-14T12:14:04.464Z,53.26
2023-04-14T12:16:06.035Z,52.99
2023-04-14T12:18:07.397Z,53.24
2023-04-14T12:20:09.438Z,52.98
2023-04-14T12:22:10.859Z,52.89
2023-04-14T12:24:12.204Z,52.81
2023-04-14T12:26:13.578Z,53.08
2023-04-14T12:28:15.323Z,52.74
2023-04-14T12:30:19.606Z,52.74
2023-04-14T12:32:22.596Z,52.39
2023-04-14T12:34:24.174Z,52.56
2023-04-14T12:37:48.129Z,52.24
2023-04-14T12:38:46.774Z,52.16
2023-04-14T12:40:48.461Z,52.14
2023-04-14T12:42:49.959Z,51.80
2023-04-14T12:44:51.326Z,51.94
2023-04-14T12:46:52.931Z,51.95
2023-04-14T12:48:54.371Z,51.86
2023-04-14T12:50:58.650Z,51.77
2023-04-14T12:53:01.365Z,52.11
2023-04-14T12:55:03.240Z,52.06
2023-04-14T12:57:05.449Z,51.60
2023-04-14T12:59:06.841Z,51.94
2023-04-14T13:01:08.296Z,51.77
2023-04-14T13:03:09.922Z,51.82
2023-04-14T13:05:12.150Z,52.11
2023-04-14T13:07:13.508Z,52.17
2023-04-14T13:09:14.845Z,51.93
2023-04-14T13:11:16.191Z,52.07
2023-04-14T13:13:17.556Z,52.03
2023-04-14T13:15:31.077Z,52.15
2023-04-14T13:17:40.426Z,52.40
2023-04-14T13:19:42.032Z,52.60
2023-04-14T13:21:43.391Z,52.75
2023-04-14T13:23:44.823Z,52.50
2023-04-14T13:25:46.193Z,52.57
2023-04-14T13:27:47.515Z,52.70
2023-04-14T13:29:48.803Z,52.90
2023-04-14T13:31:50.378Z,52.74
2023-04-14T13:33:51.674Z,52.81
2023-04-14T13:35:53.550Z,52.65
2023-04-14T13:37:54.887Z,52.95
2023-04-14T13:39:56.396Z,52.96
2023-04-14T13:41:57.713Z,52.94
2023-04-14T13:44:02.352Z,53.13
2023-04-14T13:46:03.750Z,53.25
2023-04-14T13:48:07.972Z,52.84
2023-04-14T13:50:12.073Z,53.15
2023-04-14T13:52:13.643Z,52.99
2023-04-14T13:54:14.942Z,53.00
2023-04-14T13:56:16.264Z,52.94
2023-04-14T13:58:17.626Z,52.53
2023-04-14T14:00:18.955Z,52.61
2023-04-14T14:02:20.344Z,52.64
2023-04-14T14:04:21.925Z,52.98
2023-04-14T14:06:23.315Z,52.80
2023-04-14T14:08:24.627Z,52.65
2023-04-14T14:10:26.159Z,52.47
2023-04-14T14:12:27.489Z,52.12
2023-04-14T14:14:28.885Z,51.96
2023-04-14T14:16:36.801Z,52.00
2023-04-14T14:18:38.654Z,52.07
2023-04-14T14:20:39.991Z,51.93
2023-04-14T14:22:41.658Z,52.28
2023-04-14T14:24:43.041Z,51.84
2023-04-14T14:26:44.591Z,51.96
2023-04-14T14:28:47.579Z,52.34
2023-04-14T14:30:48.919Z,52.21
2023-04-14T14:32:50.281Z,51.99
2023-04-14T14:34:51.612Z,52.19
2023-04-14T14:36:59.017Z,52.14
2023-04-14T14:39:01.056Z,52.18
2023-04-14T14:41:02.625Z,52.40
2023-04-14T14:43:04.062Z,52.73
2023-04-14T14:45:05.355Z,52.89
2023-04-14T14:47:08.163Z,52.98
2023-04-14T14:49:10.037Z,53.02
2023-04-14T14:51:11.487Z,52.81
2023-04-14T14:53:12.787Z,52.96
2023-04-14T14:55:17.091Z,52.84
2023-04-14T14:57:20.984Z,52.71
2023-04-14T14:59:22.279Z,52.90
2023-04-14T15:01:24.575Z,52.75
2023-04-14T15:03:26.047Z,52.86
2023-04-14T15:05:27.671Z,52.68
2023-04-14T15:07:28.972Z,52.79
2023-04-14T15:09:30.275Z,52.86
2023-04-14T15:11:31.581Z,52.75
2023-04-14T15:13:33.431Z,52.41
2023-04-14T15:15:35.048Z,52.81
2023-04-14T15:17:36.436Z,52.35
2023-04-14T15:19:37.782Z,52.32
2023-04-14T15:21:39.074Z,52.11
2023-04-14T15:23:43.242Z,52.04
2023-04-14T15:25:44.546Z,52.27
2023-04-14T15:27:45.837Z,52.42
2023-04-14T15:29:47.419Z,51.95
2023-04-14T15:31:48.771Z,52.04
2023-04-14T15:33:50.504Z,52.16
2023-04-14T15:35:51.841Z,51.85
2023-04-14T15:37:53.177Z,51.81
2023-04-14T15:39:54.553Z,51.85
2023-04-14T15:41:55.844Z,51.87
2023-04-14T15:43:57.378Z,51.78
2023-04-14T15:46:01.457Z,51.71
2023-04-14T15:48:02.844Z,51.86
2023-04-14T15:50:09.260Z,51.04
2023-04-14T15:52:11.685Z,51.98
2023-04-14T15:54:13.432Z,51.23
2023-04-14T15:56:14.755Z,51.40
2023-04-14T15:58:16.226Z,51.04
2023-04-14T16:00:17.591Z,51.03
2023-04-14T16:02:19.013Z,49.05
2023-04-14T16:04:20.600Z,48.19
2023-04-14T16:06:21.990Z,48.81
2023-04-14T16:08:23.286Z,49.70
2023-04-14T16:10:24.618Z,49.29
2023-04-14T16:14:27.319Z,49.68
2023-04-14T16:16:28.810Z,49.54
2023-04-14T16:18:30.133Z,49.81
2023-04-14T16:20:31.804Z,50.84
2023-04-14T16:22:34.142Z,51.24
2023-04-14T16:24:35.430Z,51.25
2023-04-14T16:26:37.656Z,51.51
2023-04-14T16:28:39.032Z,51.10
2023-04-14T16:30:40.331Z,52.46
2023-04-14T16:32:42.029Z,51.69
2023-04-14T16:34:43.495Z,50.95
2023-04-14T16:36:46.463Z,51.27
2023-04-14T16:38:50.923Z,51.50
2023-04-14T16:40:52.238Z,52.09
2023-04-14T16:42:53.738Z,52.11
2023-04-14T16:44:55.140Z,52.66
2023-04-14T16:46:56.587Z,52.03
2023-04-14T16:49:01.183Z,51.15
2023-04-14T16:51:05.780Z,52.13
2023-04-14T16:53:07.361Z,53.56
2023-04-14T16:55:08.699Z,52.38
2023-04-14T16:57:10.451Z,52.08
2023-04-14T16:59:11.774Z,51.99
2023-04-14T17:01:13.279Z,52.39
2023-04-14T17:03:14.875Z,52.51
2023-04-14T17:05:16.593Z,53.10
2023-04-14T17:07:18.126Z,53.21
2023-04-14T17:09:19.413Z,53.18
2023-04-14T17:11:24.204Z,53.51
2023-04-14T17:13:25.598Z,53.46
2023-04-14T17:15:27.731Z,53.51
2023-04-14T17:17:29.073Z,53.47
2023-04-14T17:19:30.378Z,53.07
2023-04-14T17:21:31.696Z,52.58
2023-04-14T17:23:33.007Z,51.49
2023-04-14T17:25:34.348Z,53.39
2023-04-14T17:27:35.640Z,52.90
2023-04-14T17:29:43.027Z,53.49
2023-04-14T17:31:44.626Z,53.45
2023-04-14T17:33:46.273Z,53.43
2023-04-14T17:35:47.599Z,55.83
2023-04-14T17:37:48.925Z,53.88
2023-04-14T17:39:51.441Z,52.66
2023-04-14T17:41:52.746Z,52.60
2023-04-14T17:43:54.071Z,52.15
2023-04-14T17:45:58.695Z,52.11
2023-04-14T17:48:00.172Z,52.25
2023-04-14T17:50:02.205Z,52.86
2023-04-14T17:52:03.521Z,53.70
2023-04-14T17:54:05.573Z,52.88
2023-04-14T17:56:06.935Z,53.34
2023-04-14T17:58:08.300Z,53.47
2023-04-14T18:00:15.376Z,53.43
2023-04-14T18:02:19.596Z,53.95
2023-04-14T18:04:24.019Z,54.15
2023-04-14T18:06:25.388Z,54.03
2023-04-14T18:08:26.681Z,54.56
2023-04-14T18:10:28.018Z,53.61
2023-04-14T18:12:30.854Z,53.49
2023-04-14T18:14:32.743Z,54.11
2023-04-14T18:16:36.729Z,53.70
2023-04-14T18:18:41.048Z,53.69
2023-04-14T18:20:42.439Z,55.17
2023-04-14T18:22:43.773Z,53.27
2023-04-14T18:26:49.313Z,52.71
2023-04-14T18:28:53.612Z,53.16
2023-04-14T18:30:59.018Z,52.47
2023-04-14T18:33:00.980Z,52.54
2023-04-14T18:35:02.348Z,52.60
2023-04-14T18:37:04.003Z,52.67
2023-04-14T18:39:07.202Z,52.86
2023-04-14T18:41:08.819Z,52.53
2023-04-14T18:43:10.111Z,52.10
2023-04-14T18:45:11.502Z,52.17
2023-04-14T18:47:12.899Z,52.81
2023-04-14T18:49:14.300Z,53.57
2023-04-14T18:51:16.080Z,53.64
2023-04-14T18:53:17.425Z,54.30
2023-04-14T18:55:19.539Z,53.95
2023-04-14T18:57:22.295Z,54.38
2023-04-14T18:59:23.703Z,53.36
2023-04-14T19:01:25.112Z,52.80
2023-04-14T19:03:29.952Z,53.32
2023-04-14T19:05:32.066Z,53.43
2023-04-14T19:07:33.382Z,53.19
2023-04-14T19:09:36.161Z,53.61
2023-04-14T19:11:37.523Z,53.12
2023-04-14T19:13:38.874Z,53.16
2023-04-14T19:15:40.256Z,53.31
2023-04-14T19:17:41.917Z,53.32
2023-04-14T19:19:43.847Z,53.02
2023-04-14T19:21:45.144Z,53.23
2023-04-14T19:23:46.677Z,53.25
2023-04-14T19:25:50.798Z,52.99
2023-04-14T19:27:56.979Z,53.60
2023-04-14T19:29:58.283Z,53.39
2023-04-14T19:31:59.705Z,52.73
2023-04-14T19:34:01.109Z,52.69
2023-04-14T19:36:02.587Z,52.87
2023-04-14T19:38:04.705Z,52.93
2023-04-14T19:40:10.955Z,53.01
2023-04-14T19:42:12.520Z,52.78
2023-04-14T19:44:14.668Z,52.40
2023-04-14T19:46:16.719Z,53.14
2023-04-14T19:48:23.562Z,52.81
2023-04-14T19:50:25.763Z,53.08
2023-04-14T19:52:27.119Z,52.88
2023-04-14T19:54:28.772Z,52.99
2023-04-14T19:56:30.140Z,53.10
2023-04-14T19:58:32.692Z,53.23
2023-04-14T20:00:43.481Z,52.91
2023-04-14T20:02:45.150Z,53.22
2023-04-14T20:04:46.825Z,53.88
2023-04-14T20:06:50.943Z,54.01
2023-04-14T20:08:52.244Z,53.93
2023-04-14T20:10:54.168Z,53.53
2023-04-14T20:12:55.561Z,53.18
2023-04-14T20:14:57.301Z,52.79
2023-04-14T20:16:59.438Z,52.67
2023-04-14T20:19:02.525Z,53.05
2023-04-14T20:21:04.733Z,52.85
2023-04-14T20:23:07.064Z,53.13
2023-04-14T20:25:08.377Z,52.96
2023-04-14T20:27:09.715Z,53.22
2023-04-14T20:29:12.277Z,52.91
2023-04-14T20:31:16.529Z,53.23
2023-04-14T20:33:21.451Z,53.01
2023-04-14T20:35:22.867Z,53.34
2023-04-14T20:37:24.159Z,53.35
2023-04-14T20:39:25.507Z,53.24
2023-04-14T20:41:27.286Z,53.57
2023-04-14T20:43:33.892Z,55.34
2023-04-14T20:45:35.280Z,53.14
2023-04-14T20:47:37.137Z,53.02
2023-04-14T20:49:41.574Z,53.00
2023-04-14T20:51:42.898Z,52.53
2023-04-14T20:53:44.400Z,52.13
2023-04-14T20:55:46.041Z,52.73
2023-04-14T20:57:47.977Z,52.95
2023-04-14T20:59:49.677Z,51.83
2023-04-14T21:01:53.917Z,52.03
2023-04-14T21:03:56.230Z,52.29
2023-04-14T21:05:57.763Z,52.52
2023-04-14T21:07:59.099Z,52.52
2023-04-14T21:10:00.444Z,52.56
2023-04-14T21:12:14.349Z,53.02
2023-04-14T21:15:30.734Z,53.24
2023-04-14T21:16:41.843Z,52.81
2023-04-14T21:18:43.242Z,53.07
2023-04-14T21:20:44.624Z,53.66
2023-04-14T21:22:45.960Z,53.30
2023-04-14T21:24:48.581Z,53.84
2023-04-14T21:26:49.928Z,52.87
2023-04-14T21:28:51.261Z,53.22
2023-04-14T21:30:55.855Z,53.00
2023-04-14T21:32:57.260Z,52.84
2023-04-14T21:34:59.034Z,52.63
2023-04-14T21:37:00.336Z,52.36
2023-04-14T21:39:02.224Z,52.40
2023-04-14T21:41:03.984Z,52.25
2023-04-14T21:43:05.285Z,52.13
2023-04-14T21:45:07.757Z,52.23
2023-04-14T21:47:09.138Z,52.26
2023-04-14T21:49:11.371Z,52.47
2023-04-14T21:51:13.283Z,52.71
2023-04-14T21:53:14.596Z,52.45
2023-04-14T21:55:16.284Z,52.49
2023-04-14T21:57:48.372Z,52.53
2023-04-14T21:59:41.882Z,52.71
2023-04-14T22:01:43.327Z,52.86
2023-04-14T22:03:44.778Z,53.16
2023-04-14T22:05:46.249Z,52.49
2023-04-14T22:07:47.551Z,52.89
2023-04-14T22:09:48.875Z,49.93
2023-04-14T22:11:50.278Z,49.21
2023-04-14T22:13:51.629Z,50.67
2023-04-14T22:15:52.929Z,51.69
2023-04-14T22:17:54.343Z,50.95
2023-04-14T22:19:55.697Z,50.43
2023-04-14T22:21:57.020Z,50.84
2023-04-14T22:23:58.609Z,50.92
2023-04-14T22:25:59.935Z,51.41
2023-04-14T22:28:01.270Z,51.67
2023-04-14T22:30:02.799Z,51.75
2023-04-14T22:32:04.231Z,51.77
2023-04-14T22:34:05.612Z,51.49
2023-04-14T22:36:07.585Z,51.98
2023-04-14T22:38:08.890Z,52.25
2023-04-14T22:40:10.189Z,52.15
2023-04-14T22:42:11.484Z,52.30
2023-04-14T22:44:12.950Z,52.13
2023-04-14T22:46:15.190Z,51.88
2023-04-14T22:48:16.556Z,52.02
2023-04-14T22:50:17.864Z,52.01
2023-04-14T22:52:19.484Z,52.29
2023-04-14T22:54:20.795Z,52.39
2023-04-14T22:56:22.087Z,52.66
2023-04-14T22:58:24.163Z,52.86
2023-04-14T23:00:25.505Z,52.92
2023-04-14T23:02:27.722Z,53.18
2023-04-14T23:04:29.213Z,53.33
2023-04-14T23:06:30.576Z,53.75
2023-04-14T23:08:31.922Z,53.66
2023-04-14T23:10:33.269Z,54.08
2023-04-14T23:12:34.608Z,54.42
2023-04-14T23:14:35.947Z,54.52
2023-04-14T23:16:37.249Z,54.63
2023-04-14T23:18:39.868Z,55.04
2023-04-14T23:20:41.258Z,55.17
2023-04-14T23:22:42.932Z,55.01
2023-04-14T23:24:44.650Z,55.15
2023-04-14T23:26:45.939Z,54.90
2023-04-14T23:28:47.270Z,55.47
2023-04-14T23:30:48.593Z,55.23
2023-04-14T23:32:50.124Z,55.10
2023-04-14T23:34:51.500Z,55.64
2023-04-14T23:36:52.765Z,55.42
2023-04-14T23:38:54.954Z,55.83
2023-04-14T23:40:59.034Z,55.67
2023-04-14T23:43:00.516Z,55.37
2023-04-14T23:45:02.212Z,56.03
2023-04-14T23:47:05.287Z,55.90
2023-04-14T23:49:23.826Z,55.91
2023-04-14T23:51:27.100Z,56.23
2023-04-14T23:53:28.554Z,56.05
2023-04-14T23:55:29.932Z,56.23
2023-04-14T23:57:31.273Z,56.20
2023-04-14T23:59:32.729Z,56.31
